Time;durP1;ratioP1;P1;durP2;ratioP2;P2;SDS_P1;SDS_P2;PMS_P1;PMS_P2;Temp;Humidity;BMP_temperature;BMP_pressure;BME280_temperature;BME280_humidity;BME280_pressure;Samples;Min_cycle;Max_cycle;Signal;HPM_P1;HPM_P2
2022/11/10 00:02:07;;;;;;;;;;;;;;;-143.57;100.00;51179.75;5083561;28;20048;-80
2022/11/10 00:04:53;;;;;;;;;;;;;;;-143.57;100.00;51175.75;5079865;28;20028;-80
2022/11/10 00:07:38;;;;;;;;;;;;;;;-143.57;100.00;51124.06;5065415;28;20479;-79
2022/11/10 00:10:24;;;;;;;;;;;;;;;-143.57;100.00;51211.53;5079644;28;19939;-80
2022/11/10 00:13:09;;;;;;;;;;;;;;;-143.57;100.00;51155.88;5065440;28;20084;-80
2022/11/10 00:19:00;;;;;;;;;;;;;;;-143.57;100.00;51161.84;5083953;28;20621;-80
2022/11/10 00:21:46;;;;;;;;;;;;;;;-143.57;100.00;51167.81;5081131;28;19935;-80
2022/11/10 00:24:31;;;;;;;;;;;;;;;-143.57;100.00;51136.00;5084356;28;19935;-80
2022/11/10 00:27:17;;;;;;;;;;;;;;;-143.57;100.00;51163.84;5076147;28;20141;-80
2022/11/10 00:30:03;;;;;;;;;;;;;;;-143.57;100.00;51169.78;5067422;28;19931;-80
2022/11/10 00:32:49;;;;;;;;;;;;;;;-143.57;100.00;51147.94;5076152;28;19935;-80
2022/11/10 00:35:35;;;;;;;;;;;;;;;-143.57;100.00;51187.69;5066840;28;19935;-80
2022/11/10 00:38:20;;;;;;;;;;;;;;;-143.57;100.00;51175.75;5064800;28;20067;-80
2022/11/10 00:41:06;;;;;;;;;;;;;;;-143.57;100.00;51163.84;5079973;28;20427;-80
2022/11/10 00:43:51;;;;;;;;;;;;;;;-143.57;100.00;51183.72;5061478;28;19934;-80
2022/11/10 00:46:36;;;;;;;;;;;;;;;-143.57;100.00;51151.91;5080448;28;19931;-80
2022/11/10 00:49:22;;;;;;;;;;;;;;;-143.57;100.00;51122.09;5066727;28;19931;-77
2022/11/10 00:52:07;;;;;;;;;;;;;;;-143.57;100.00;51169.78;5080693;28;19939;-76
2022/11/10 00:54:52;;;;;;;;;;;;;;;-143.57;100.00;51187.69;5078412;28;19935;-75
2022/11/10 00:57:37;;;;;;;;;;;;;;;-143.57;100.00;51165.81;5078728;28;20054;-74
2022/11/10 01:00:22;;;;;;;;;;;;;;;-143.57;100.00;51155.88;5081486;28;20024;-74
2022/11/10 01:03:11;;;;;;;;;;;;;;;-143.57;100.00;51136.00;5063162;28;19966;-74
2022/11/10 01:05:57;;;;;;;;;;;;;;;-143.57;100.00;51171.78;5081535;28;19935;-75
2022/11/10 01:08:42;;;;;;;;;;;;;;;-143.57;100.00;51171.78;5079674;28;19938;-72
2022/11/10 01:11:28;;;;;;;;;;;;;;;-143.57;100.00;51159.84;5078921;28;19939;-72
2022/11/10 01:14:13;;;;;;;;;;;;;;;-143.57;100.00;51151.91;5082481;28;21245;-73
2022/11/10 01:16:58;;;;;;;;;;;;;;;-143.57;100.00;51191.66;5084290;28;20625;-73
2022/11/10 01:19:43;;;;;;;;;;;;;;;-143.57;100.00;51161.84;5080593;28;19935;-73
2022/11/10 01:22:29;;;;;;;;;;;;;;;-143.57;100.00;51191.66;5084717;28;20013;-74
2022/11/10 01:25:14;;;;;;;;;;;;;;;-143.57;100.00;51151.91;5081771;28;20647;-73
2022/11/10 01:27:59;;;;;;;;;;;;;;;-143.57;100.00;51167.81;5084422;28;19935;-73
2022/11/10 01:30:45;;;;;;;;;;;;;;;-143.57;100.00;51167.81;5088916;28;19934;-73
2022/11/10 01:33:30;;;;;;;;;;;;;;;-143.57;100.00;51191.66;5089856;28;19938;-74
2022/11/10 01:36:16;;;;;;;;;;;;;;;-143.57;100.00;51179.75;5087616;28;19935;-73
2022/11/10 01:39:01;;;;;;;;;;;;;;;-143.57;100.00;51169.78;5086514;28;19931;-73
2022/11/10 01:41:46;;;;;;;;;;;;;;;-143.57;100.00;51151.91;5086384;28;20643;-72
2022/11/10 01:44:33;;;;;;;;;;;;;;;-143.57;100.00;51159.84;5087482;28;19931;-73
2022/11/10 01:47:18;;;;;;;;;;;;;;;-143.57;100.00;51167.81;5089664;28;19931;-73
2022/11/10 01:50:05;;;;;;;;;;;;;;;-143.57;100.00;51195.63;5089409;28;20016;-74
2022/11/10 01:52:52;;;;;;;;;;;;;;;-143.57;100.00;51175.75;5089112;28;19965;-73
2022/11/10 01:55:40;;;;;;;;;;;;;;;-143.57;100.00;51151.91;5065739;28;19935;-74
2022/11/10 01:58:29;;;;;;;;;;;;;;;-143.57;100.00;51151.91;5084807;28;20052;-73
2022/11/10 02:01:14;;;;;;;;;;;;;;;-143.57;100.00;51151.91;5083689;28;21258;-73
2022/11/10 02:04:19;;;;;;;;;;;;;;;-143.57;100.00;51155.88;5087942;27;19927;-73
2022/11/10 02:07:04;;;;;;;;;;;;;;;-143.57;100.00;51149.91;5082579;28;19988;-73
2022/11/10 02:09:51;;;;;;;;;;;;;;;-143.57;100.00;51175.75;5082570;28;19935;-73
2022/11/10 02:12:36;;;;;;;;;;;;;;;-143.57;100.00;51167.81;5079114;28;20431;-73
2022/11/10 02:15:22;;;;;;;;;;;;;;;-143.57;100.00;51143.97;5081153;28;19939;-73
2022/11/10 02:18:07;;;;;;;;;;;;;;;-143.57;100.00;51159.84;5081093;28;19980;-73
2022/11/10 02:20:52;;;;;;;;;;;;;;;-143.57;100.00;51151.91;5082213;28;19989;-73
2022/11/10 02:23:37;;;;;;;;;;;;;;;-143.57;100.00;51167.81;5080082;28;20542;-73
2022/11/10 02:26:24;;;;;;;;;;;;;;;-143.57;100.00;51155.88;5083011;28;19980;-73
2022/11/10 02:29:09;;;;;;;;;;;;;;;-143.57;100.00;51145.94;5077928;28;19935;-73
2022/11/10 02:31:54;;;;;;;;;;;;;;;-143.57;100.00;51171.78;5085181;28;19935;-73
2022/11/10 02:34:40;;;;;;;;;;;;;;;-143.57;100.00;51147.94;5078643;28;19935;-73
2022/11/10 02:37:25;;;;;;;;;;;;;;;-143.57;100.00;51175.75;5083200;28;19983;-73
2022/11/10 02:40:10;;;;;;;;;;;;;;;-143.57;100.00;51177.75;5080154;28;19950;-73
2022/11/10 02:42:56;;;;;;;;;;;;;;;-143.57;100.00;51161.84;5085375;28;20589;-73
2022/11/10 02:45:44;;;;;;;;;;;;;;;-143.57;100.00;51175.75;5080034;28;19935;-73
2022/11/10 02:48:28;;;;;;;;;;;;;;;-143.57;100.00;51199.63;5081654;28;19935;-73
2022/11/10 02:51:13;;;;;;;;;;;;;;;-143.57;100.00;51203.59;5078360;28;19931;-73
2022/11/10 02:53:59;;;;;;;;;;;;;;;-143.57;100.00;51191.66;5080098;28;19935;-73
2022/11/10 02:56:44;;;;;;;;;;;;;;;-143.57;100.00;51171.78;5075897;28;20531;-74
2022/11/10 02:59:29;;;;;;;;;;;;;;;-143.57;100.00;51147.94;5078786;28;19931;-73
2022/11/10 03:02:15;;;;;;;;;;;;;;;-143.57;100.00;51191.66;5077308;28;20585;-73
2022/11/10 03:05:00;;;;;;;;;;;;;;;-143.57;100.00;51179.75;5079809;28;20628;-73
2022/11/10 03:07:51;;;;;;;;;;;;;;;-143.57;100.00;51159.84;5079958;28;19935;-73
2022/11/10 03:10:36;;;;;;;;;;;;;;;-143.57;100.00;51183.72;5077980;28;19931;-73
2022/11/10 03:13:23;;;;;;;;;;;;;;;-143.57;100.00;51187.69;5060305;28;19935;-73
2022/11/10 03:16:09;;;;;;;;;;;;;;;-143.57;100.00;51167.81;5078456;28;20617;-73
2022/11/10 03:18:55;;;;;;;;;;;;;;;-143.57;100.00;51207.56;5074321;28;20378;-73
2022/11/10 03:21:40;;;;;;;;;;;;;;;-143.57;100.00;51147.94;5077528;28;20527;-73
2022/11/10 03:24:25;;;;;;;;;;;;;;;-143.57;100.00;51187.69;5079648;28;20068;-73
2022/11/10 03:27:10;;;;;;;;;;;;;;;-143.57;100.00;51171.78;5075944;28;19931;-74
2022/11/10 03:29:55;;;;;;;;;;;;;;;-143.57;100.00;51183.72;5063459;28;19931;-73
2022/11/10 03:32:41;;;;;;;;;;;;;;;-143.57;100.00;51163.84;5078196;28;20045;-73
2022/11/10 03:35:26;;;;;;;;;;;;;;;-143.57;100.00;51124.06;5081909;28;20344;-73
2022/11/10 03:38:12;;;;;;;;;;;;;;;-143.57;100.00;51159.84;5077010;28;19939;-73
2022/11/10 03:40:57;;;;;;;;;;;;;;;-143.57;100.00;51183.72;5080179;28;20471;-73
2022/11/10 03:44:02;;;;;;;;;;;;;;;-143.57;100.00;51179.75;5081041;28;19935;-73
2022/11/10 03:46:47;;;;;;;;;;;;;;;-143.57;100.00;51163.84;5080203;28;19947;-73
2022/11/10 03:49:35;;;;;;;;;;;;;;;-143.57;100.00;51175.75;5078638;28;20443;-73
2022/11/10 03:52:21;;;;;;;;;;;;;;;-143.57;100.00;51191.66;5085984;28;19931;-73
2022/11/10 03:55:06;;;;;;;;;;;;;;;-143.57;100.00;51183.72;5077498;28;20085;-73
2022/11/10 03:57:52;;;;;;;;;;;;;;;-143.57;100.00;51167.81;5081168;28;19936;-73
2022/11/10 04:00:37;;;;;;;;;;;;;;;-143.57;100.00;51159.84;5078572;28;19931;-73
2022/11/10 04:03:23;;;;;;;;;;;;;;;-143.57;100.00;51195.63;5085262;28;19985;-73
2022/11/10 04:09:13;;;;;;;;;;;;;;;-143.57;100.00;51173.78;5080286;28;19930;-73
2022/11/10 04:18:20;;;;;;;;;;;;;;;-143.57;100.00;51147.94;5082842;28;20313;-74
2022/11/10 04:21:05;;;;;;;;;;;;;;;-143.57;100.00;51159.84;5079345;28;19981;-73
2022/11/10 04:23:50;;;;;;;;;;;;;;;-143.57;100.00;51171.78;5082743;28;20600;-74
2022/11/10 04:26:47;;;;;;;;;;;;;;;-143.57;100.00;51181.72;5070685;28;19934;-73
2022/11/10 04:29:32;;;;;;;;;;;;;;;-143.57;100.00;51159.84;5076709;28;19935;-74
2022/11/10 04:32:18;;;;;;;;;;;;;;;-143.57;100.00;51171.78;5090135;28;20693;-74
2022/11/10 04:35:03;;;;;;;;;;;;;;;-143.57;100.00;51171.78;5094963;28;20111;-73
2022/11/10 04:37:48;;;;;;;;;;;;;;;-143.57;100.00;51211.53;5069045;28;19931;-74
2022/11/10 04:40:33;;;;;;;;;;;;;;;-143.57;100.00;51189.69;5088304;28;19943;-71
2022/11/10 04:43:18;;;;;;;;;;;;;;;-143.57;100.00;51199.63;5088386;28;20585;-71
2022/11/10 04:46:04;;;;;;;;;;;;;;;-143.57;100.00;51195.63;5083365;28;19939;-71
2022/11/10 04:48:49;;;;;;;;;;;;;;;-143.57;100.00;51153.91;5079027;28;19989;-71
2022/11/10 04:51:36;;;;;;;;;;;;;;;-143.57;100.00;51147.94;5068550;28;20002;-71
2022/11/10 04:54:22;;;;;;;;;;;;;;;-143.57;100.00;51175.75;5064282;28;19976;-71
2022/11/10 04:57:07;;;;;;;;;;;;;;;-143.57;100.00;51139.97;5080730;28;20290;-70
2022/11/10 04:59:53;;;;;;;;;;;;;;;-143.57;100.00;51171.78;5087799;28;20028;-76
2022/11/10 05:02:38;;;;;;;;;;;;;;;-143.57;100.00;51169.78;5064393;28;19992;-77
2022/11/10 05:05:24;;;;;;;;;;;;;;;-143.57;100.00;51159.84;5087238;28;20056;-75
2022/11/10 05:08:09;;;;;;;;;;;;;;;-143.57;100.00;51171.78;5103715;28;19988;-75
2022/11/10 05:10:55;;;;;;;;;;;;;;;-143.57;100.00;51171.78;5090025;28;19935;-75
2022/11/10 05:13:40;;;;;;;;;;;;;;;-143.57;100.00;51181.72;5107346;28;19935;-76
2022/11/10 05:16:25;;;;;;;;;;;;;;;-143.57;100.00;51207.56;5104398;28;19934;-75
2022/11/10 05:19:11;;;;;;;;;;;;;;;-143.57;100.00;51171.78;5085514;28;19939;-74
2022/11/10 05:21:58;;;;;;;;;;;;;;;-143.57;100.00;51159.84;5089166;28;19935;-75
2022/11/10 05:24:46;;;;;;;;;;;;;;;-143.57;100.00;51141.97;5071551;28;19931;-75
2022/11/10 05:27:31;;;;;;;;;;;;;;;-143.57;100.00;51155.88;5074291;28;20005;-76
2022/11/10 05:30:16;;;;;;;;;;;;;;;-143.57;100.00;51187.69;5083227;28;20078;-76
2022/11/10 05:33:02;;;;;;;;;;;;;;;-143.57;100.00;51126.06;5068216;28;20474;-76
2022/11/10 05:35:48;;;;;;;;;;;;;;;-143.57;100.00;51139.97;5065766;28;19939;-77
2022/11/10 05:38:33;;;;;;;;;;;;;;;-143.57;100.00;51179.75;5082363;28;20555;-77
2022/11/10 05:41:24;;;;;;;;;;;;;;;-143.57;100.00;51163.84;5080698;28;20661;-77
2022/11/10 05:44:09;;;;;;;;;;;;;;;-143.57;100.00;51136.00;5081657;28;20624;-77
2022/11/10 05:46:54;;;;;;;;;;;;;;;-143.57;100.00;51167.81;5064829;28;19963;-77
2022/11/10 05:49:40;;;;;;;;;;;;;;;-143.57;100.00;51163.84;5084897;28;19978;-77
2022/11/10 05:52:25;;;;;;;;;;;;;;;-143.57;100.00;51183.72;5070287;28;19947;-77
2022/11/10 05:55:11;;;;;;;;;;;;;;;-143.57;100.00;51143.97;5087957;28;20313;-77
2022/11/10 05:57:56;;;;;;;;;;;;;;;-143.57;100.00;51167.81;5082230;28;20408;-77
2022/11/10 06:00:44;;;;;;;;;;;;;;;-143.57;100.00;51149.91;5083454;28;20077;-77
2022/11/10 06:03:30;;;;;;;;;;;;;;;-143.57;100.00;51147.94;5082809;28;20081;-77
2022/11/10 06:06:17;;;;;;;;;;;;;;;-143.57;100.00;51207.56;5071429;28;19935;-77
2022/11/10 06:09:02;;;;;;;;;;;;;;;-143.57;100.00;51143.97;5082752;28;19932;-77
2022/11/10 06:11:47;;;;;;;;;;;;;;;-143.57;100.00;51175.75;5086267;28;19981;-77
2022/11/10 06:14:32;;;;;;;;;;;;;;;-143.57;100.00;51203.59;5085305;28;20004;-77
2022/11/10 06:17:17;;;;;;;;;;;;;;;-143.57;100.00;51155.88;5074473;28;19931;-77
2022/11/10 06:20:03;;;;;;;;;;;;;;;-143.57;100.00;51167.81;5092158;28;19935;-77
2022/11/10 06:22:58;;;;;;;;;;;;;;;-143.57;100.00;51177.75;5066065;28;20044;-77
2022/11/10 06:25:44;;;;;;;;;;;;;;;-143.57;100.00;51118.13;5079663;28;19981;-77
2022/11/10 06:28:29;;;;;;;;;;;;;;;-143.57;100.00;51185.69;5083433;28;20548;-77
2022/11/10 06:31:14;;;;;;;;;;;;;;;-143.57;100.00;51179.75;5070406;28;19989;-76
2022/11/10 06:34:00;;;;;;;;;;;;;;;-143.57;100.00;51171.78;5066001;28;19939;-77
2022/11/10 06:36:45;;;;;;;;;;;;;;;-143.57;100.00;51139.97;5083546;28;19931;-77
2022/11/10 06:39:31;;;;;;;;;;;;;;;-143.57;100.00;51199.63;5082514;28;19931;-77
2022/11/10 06:42:16;;;;;;;;;;;;;;;-143.57;100.00;51189.69;5071293;28;20203;-77
2022/11/10 06:45:02;;;;;;;;;;;;;;;-143.57;100.00;51169.78;5081360;28;20052;-77
2022/11/10 06:47:47;;;;;;;;;;;;;;;-143.57;100.00;51163.84;5084145;28;19935;-74
2022/11/10 06:50:32;;;;;;;;;;;;;;;-143.57;100.00;51163.84;5065266;28;20599;-76
2022/11/10 06:53:18;;;;;;;;;;;;;;;-143.57;100.00;51199.63;5066404;28;19935;-71
2022/11/10 06:56:10;;;;;;;;;;;;;;;-143.57;100.00;51163.84;5075058;28;19942;-71
2022/11/10 06:58:55;;;;;;;;;;;;;;;-143.57;100.00;51151.91;5080989;28;20691;-71
2022/11/10 07:01:41;;;;;;;;;;;;;;;-143.57;100.00;51187.69;5075624;28;19931;-70
2022/11/10 07:04:26;;;;;;;;;;;;;;;-143.57;100.00;51223.47;5064346;28;19927;-71
2022/11/10 07:07:12;;;;;;;;;;;;;;;-143.57;100.00;51199.63;5080885;28;19939;-71
2022/11/10 07:09:57;;;;;;;;;;;;;;;-143.57;100.00;51187.69;5080941;28;20002;-71
2022/11/10 07:12:54;;;;;;;;;;;;;;;-143.57;100.00;51187.69;5080137;28;19932;-71
2022/11/10 07:15:39;;;;;;;;;;;;;;;-143.57;100.00;51171.78;5069926;28;20841;-69
2022/11/10 07:18:24;;;;;;;;;;;;;;;-143.57;100.00;51195.63;5077386;28;19939;-70
2022/11/10 07:21:09;;;;;;;;;;;;;;;-143.57;100.00;51147.94;5082904;28;19935;-71
2022/11/10 07:23:56;;;;;;;;;;;;;;;-143.57;100.00;51187.69;5077591;28;20492;-69
2022/11/10 07:26:42;;;;;;;;;;;;;;;-143.57;100.00;51177.75;5079986;28;19935;-70
2022/11/10 07:29:27;;;;;;;;;;;;;;;-143.57;100.00;51203.59;5083039;28;20289;-70
2022/11/10 07:32:13;;;;;;;;;;;;;;;-143.57;100.00;51191.66;5081103;28;19939;-70
2022/11/10 07:34:58;;;;;;;;;;;;;;;-143.57;100.00;51171.78;5082313;28;20066;-71
2022/11/10 07:37:44;;;;;;;;;;;;;;;-143.57;100.00;51191.66;5081655;28;19935;-71
2022/11/10 07:40:29;;;;;;;;;;;;;;;-143.57;100.00;51199.63;5081279;28;19985;-70
2022/11/10 07:43:14;;;;;;;;;;;;;;;-143.57;100.00;51179.75;5084792;28;20056;-72
2022/11/10 07:45:59;;;;;;;;;;;;;;;-143.57;100.00;51207.56;5078716;28;19935;-70
2022/11/10 07:48:44;;;;;;;;;;;;;;;-143.57;100.00;51209.56;5080779;28;20187;-71
2022/11/10 07:51:30;;;;;;;;;;;;;;;-143.57;100.00;51199.63;5081857;28;19934;-70
2022/11/10 07:54:15;;;;;;;;;;;;;;;-143.57;100.00;51181.72;5081978;28;19955;-69
2022/11/10 07:57:00;;;;;;;;;;;;;;;-143.57;100.00;51163.84;5082476;28;19943;-69
2022/11/10 07:59:46;;;;;;;;;;;;;;;-143.57;100.00;51159.84;5085932;28;20509;-69
2022/11/10 08:02:30;;;;;;;;;;;;;;;-143.57;100.00;51183.72;5064546;28;20527;-72
2022/11/10 08:05:16;;;;;;;;;;;;;;;-143.57;100.00;51171.78;5083362;28;19935;-74
2022/11/10 08:08:02;;;;;;;;;;;;;;;-143.57;100.00;51183.72;5085289;28;20006;-72
2022/11/10 08:10:47;;;;;;;;;;;;;;;-143.57;100.00;51163.84;5087062;28;20727;-68
2022/11/10 08:13:32;;;;;;;;;;;;;;;-143.57;100.00;51193.66;5087028;28;19931;-69
2022/11/10 08:16:17;;;;;;;;;;;;;;;-143.57;100.00;51229.44;5085411;28;19931;-72
2022/11/10 08:19:03;;;;;;;;;;;;;;;-143.57;100.00;51151.91;5082986;28;19937;-73
2022/11/10 08:21:48;;;;;;;;;;;;;;;-143.57;100.00;51187.69;5085578;28;19951;-70
2022/11/10 08:24:33;;;;;;;;;;;;;;;-143.57;100.00;51195.63;5085345;28;20020;-69
2022/11/10 08:27:19;;;;;;;;;;;;;;;-143.57;100.00;51195.63;5085432;28;19935;-70
2022/11/10 08:30:04;;;;;;;;;;;;;;;-143.57;100.00;51183.72;5085158;28;20428;-71
2022/11/10 08:32:51;;;;;;;;;;;;;;;-143.57;100.00;51163.84;5085002;28;19934;-70
2022/11/10 08:35:37;;;;;;;;;;;;;;;-143.57;100.00;51219.50;5086625;28;20455;-71
2022/11/10 08:38:23;;;;;;;;;;;;;;;-143.57;100.00;51201.59;5088963;28;20040;-71
2022/11/10 08:41:08;;;;;;;;;;;;;;;-143.57;100.00;51171.78;5084411;28;19935;-71
2022/11/10 08:43:53;;;;;;;;;;;;;;;-143.57;100.00;51191.66;5084321;28;19935;-71
2022/11/10 08:46:41;;;;;;;;;;;;;;;-143.57;100.00;51151.91;5082435;28;19978;-74
2022/11/10 08:49:26;;;;;;;;;;;;;;;-143.57;100.00;51203.59;5084566;28;19935;-71
2022/11/10 08:52:12;;;;;;;;;;;;;;;-143.57;100.00;51183.72;5089006;28;20033;-73
2022/11/10 08:54:58;;;;;;;;;;;;;;;-143.57;100.00;51187.69;5084647;28;20415;-72
2022/11/10 08:57:43;;;;;;;;;;;;;;;-143.57;100.00;51183.72;5084959;28;20335;-72
2022/11/10 09:00:29;;;;;;;;;;;;;;;-143.57;100.00;51175.75;5085649;28;19946;-75
2022/11/10 09:03:17;;;;;;;;;;;;;;;-143.57;100.00;51217.50;5068357;28;19993;-72
2022/11/10 09:06:03;;;;;;;;;;;;;;;-143.57;100.00;51219.50;5089754;28;19935;-72
2022/11/10 09:08:48;;;;;;;;;;;;;;;-143.57;100.00;51179.75;5089595;28;19935;-73
2022/11/10 09:11:33;;;;;;;;;;;;;;;-143.57;100.00;51211.53;5088211;28;20002;-72
2022/11/10 09:14:19;;;;;;;;;;;;;;;-143.57;100.00;51181.72;5085118;28;19935;-72
2022/11/10 09:17:05;;;;;;;;;;;;;;;-143.57;100.00;51191.66;5083678;28;19931;-73
2022/11/10 09:19:50;;;;;;;;;;;;;;;-143.57;100.00;51191.66;5086030;28;19930;-72
2022/11/10 09:22:36;;;;;;;;;;;;;;;-143.57;100.00;51209.56;5085954;28;19934;-72
2022/11/10 09:25:21;;;;;;;;;;;;;;;-143.57;100.00;51215.53;5085055;28;19935;-72
2022/11/10 09:28:13;;;;;;;;;;;;;;;-143.57;100.00;51183.72;5070297;28;19939;-72
2022/11/10 09:30:58;;;;;;;;;;;;;;;-143.57;100.00;51189.69;5071362;28;20451;-72
2022/11/10 09:33:44;;;;;;;;;;;;;;;-143.57;100.00;51175.75;5085433;28;19935;-72
2022/11/10 09:36:29;;;;;;;;;;;;;;;-143.57;100.00;51203.59;5084837;28;19935;-72
2022/11/10 09:39:14;;;;;;;;;;;;;;;-143.57;100.00;51187.69;5087080;28;19943;-71
2022/11/10 09:41:59;;;;;;;;;;;;;;;-143.57;100.00;51175.75;5088373;28;19951;-71
2022/11/10 09:44:50;;;;;;;;;;;;;;;-143.57;100.00;51195.63;5081608;28;19935;-70
2022/11/10 09:48:05;;;;;;;;;;;;;;;-143.57;100.00;51167.81;5083106;28;20020;-71
2022/11/10 09:50:57;;;;;;;;;;;;;;;-143.57;100.00;51187.69;5076263;28;19935;-71
2022/11/10 09:53:46;;;;;;;;;;;;;;;-143.57;100.00;51191.66;5085039;28;20445;-70
2022/11/10 09:56:35;;;;;;;;;;;;;;;-143.57;100.00;51187.69;5083672;28;19958;-71
2022/11/10 09:59:31;;;;;;;;;;;;;;;-143.57;100.00;51211.53;5084115;28;20235;-71
2022/11/10 10:02:19;;;;;;;;;;;;;;;-143.57;100.00;51195.63;5083637;28;20198;-71
2022/11/10 10:05:23;;;;;;;;;;;;;;;-143.57;100.00;51187.69;5085341;28;19942;-70
2022/11/10 10:08:20;;;;;;;;;;;;;;;-143.57;100.00;51193.66;5084600;28;19940;-74
2022/11/10 10:11:06;;;;;;;;;;;;;;;-143.57;100.00;51171.78;5082538;28;19934;-72
2022/11/10 10:14:00;;;;;;;;;;;;;;;-143.57;100.00;51201.59;5069199;28;20328;-71
2022/11/10 10:16:45;;;;;;;;;;;;;;;-143.57;100.00;51199.63;5082456;28;19931;-73
2022/11/10 10:19:36;;;;;;;;;;;;;;;-143.57;100.00;51171.78;5083927;28;19935;-73
2022/11/10 10:22:22;;;;;;;;;;;;;;;-143.57;100.00;51181.72;5083334;28;19935;-74
2022/11/10 10:25:11;;;;;;;;;;;;;;;-143.57;100.00;51203.59;5083826;28;20405;-73
2022/11/10 10:28:26;;;;;;;;;;;;;;;-143.57;100.00;51231.41;5066362;28;20053;-70
2022/11/10 10:31:25;;;;;;;;;;;;;;;-143.57;100.00;51187.69;5076722;28;20020;-70
2022/11/10 10:34:13;;;;;;;;;;;;;;;-143.57;100.00;51159.84;5082494;28;19939;-71
2022/11/10 10:36:58;;;;;;;;;;;;;;;-143.57;100.00;51205.56;5082344;28;19961;-70
2022/11/10 10:39:45;;;;;;;;;;;;;;;-143.57;100.00;51235.41;5085731;28;19957;-71
2022/11/10 10:42:32;;;;;;;;;;;;;;;-143.57;100.00;51163.84;5087955;28;20520;-70
2022/11/10 10:45:27;;;;;;;;;;;;;;;-143.57;100.00;51191.66;5079851;28;19939;-70
2022/11/10 10:48:22;;;;;;;;;;;;;;;-143.57;100.00;51195.63;5082678;28;19931;-71
2022/11/10 10:51:08;;;;;;;;;;;;;;;-143.57;100.00;51199.63;5083470;28;20235;-70
2022/11/10 10:53:53;;;;;;;;;;;;;;;-143.57;100.00;51173.78;5068125;28;19950;-70
2022/11/10 10:56:38;;;;;;;;;;;;;;;-143.57;100.00;51181.72;5084335;28;19939;-70
2022/11/10 10:59:24;;;;;;;;;;;;;;;-143.57;100.00;51191.66;5082730;28;19946;-70
2022/11/10 11:02:25;;;;;;;;;;;;;;;-143.57;100.00;51171.78;5081895;28;19966;-70
2022/11/10 11:05:15;;;;;;;;;;;;;;;-143.57;100.00;51191.66;5066789;28;19931;-71
2022/11/10 11:08:01;;;;;;;;;;;;;;;-143.57;100.00;51191.66;5082513;28;19934;-70
2022/11/10 11:10:46;;;;;;;;;;;;;;;-143.57;100.00;51179.75;5083248;28;19935;-70
2022/11/10 11:13:31;;;;;;;;;;;;;;;-143.57;100.00;51207.56;5082379;28;19934;-70
2022/11/10 11:16:16;;;;;;;;;;;;;;;-143.57;100.00;51191.66;5082497;28;19935;-70
2022/11/10 11:19:01;;;;;;;;;;;;;;;-143.57;100.00;51171.78;5082168;28;20037;-70
2022/11/10 11:21:51;;;;;;;;;;;;;;;-143.57;100.00;51183.72;5083605;28;19939;-75
2022/11/10 11:24:44;;;;;;;;;;;;;;;-143.57;100.00;51147.94;5085989;28;19954;-76
2022/11/10 11:27:48;;;;;;;;;;;;;;;-143.57;100.00;51187.69;5085059;28;19935;-77
2022/11/10 11:30:39;;;;;;;;;;;;;;;-143.57;100.00;51199.63;5082762;28;19931;-70
2022/11/10 11:33:28;;;;;;;;;;;;;;;-143.57;100.00;51195.63;5082838;28;20474;-72
2022/11/10 11:36:13;;;;;;;;;;;;;;;-143.57;100.00;51159.84;5078291;28;20367;-73
2022/11/10 11:39:05;;;;;;;;;;;;;;;-143.57;100.00;51171.78;5101717;28;19939;-78
2022/11/10 11:41:53;;;;;;;;;;;;;;;-143.57;100.00;51197.63;5093427;28;19939;-78
2022/11/10 11:44:48;;;;;;;;;;;;;;;-143.57;100.00;51179.75;5093202;28;20061;-76
2022/11/10 11:47:52;;;;;;;;;;;;;;;-143.57;100.00;51219.50;5070656;28;19930;-79
2022/11/10 11:50:41;;;;;;;;;;;;;;;-143.57;98.15;51203.59;5093079;28;20336;-80
2022/11/10 11:53:49;;;;;;;;;;;;;;;-143.57;97.03;51191.66;5069861;28;20040;-78
2022/11/10 11:56:38;;;;;;;;;;;;;;;-143.57;95.84;51199.63;5085646;28;20345;-79
2022/11/10 11:59:44;;;;;;;;;;;;;;;-143.57;93.28;51179.75;5082167;28;20619;-78
2022/11/10 12:02:45;;;;;;;;;;;;;;;-143.57;63.29;51159.84;5086963;28;20427;-79
2022/11/10 12:05:36;;;;;;;;;;;;;;;-143.57;63.07;51191.66;5090119;28;20042;-78
2022/11/10 12:08:28;;;;;;;;;;;;;;;-143.57;62.05;51193.66;5083028;28;20535;-77
2022/11/10 12:11:33;;;;;;;;;;;;;;;-143.57;61.93;51175.75;5064989;28;20004;-79
2022/11/10 12:14:25;;;;;;;;;;;;;;;-143.57;61.19;51207.56;5083442;28;20328;-79
2022/11/10 12:17:10;;;;;;;;;;;;;;;-143.57;59.63;51189.69;5068711;28;20427;-78
2022/11/10 12:20:15;;;;;;;;;;;;;;;-143.57;58.47;51179.75;5088754;28;20536;-71
2022/11/10 12:23:08;;;;;;;;;;;;;;;-143.57;56.36;51183.72;5082381;28;19931;-72
2022/11/10 12:25:54;;;;;;;;;;;;;;;-143.57;52.25;51199.63;5082876;28;19931;-74
2022/11/10 12:28:59;;;;;;;;;;;;;;;-143.57;47.96;51179.75;5082087;28;19932;-73
2022/11/10 12:31:46;;;;;;;;;;;;;;;-143.57;42.08;51181.72;5066485;28;19930;-72
2022/11/10 12:34:52;;;;;;;;;;;;;;;-143.57;39.86;51143.97;5080285;28;20419;-75
2022/11/10 12:37:45;;;;;;;;;;;;;;;-143.57;39.44;51151.91;5081065;28;20489;-75
2022/11/10 12:40:33;;;;;;;;;;;;;;;-143.57;37.41;51169.78;5081150;28;20431;-75
2022/11/10 12:43:31;;;;;;;;;;;;;;;-143.57;37.74;51183.72;5078302;28;19942;-75
2022/11/10 12:46:16;;;;;;;;;;;;;;;-143.57;35.80;51132.03;5079913;28;19985;-76
2022/11/10 12:49:18;;;;;;;;;;;;;;;-143.57;34.45;51112.16;5081893;28;20066;-75
2022/11/10 12:52:20;;;;;;;;;;;;;;;-143.57;34.06;51120.09;5084179;28;20028;-76
2022/11/10 12:55:06;;;;;;;;;;;;;;;-143.57;32.63;51132.03;5085090;28;19943;-75
2022/11/10 12:57:51;;;;;;;;;;;;;;;-143.57;32.41;51132.03;5085220;28;20036;-76
2022/11/10 13:00:53;;;;;;;;;;;;;;;-143.57;32.99;51139.97;5088435;28;19935;-77
2022/11/10 13:03:50;;;;;;;;;;;;;;;-143.57;33.12;51106.19;5089876;28;20522;-79
2022/11/10 13:06:36;;;;;;;;;;;;;;;-143.57;31.96;51116.13;5068807;28;20410;-77
2022/11/10 13:09:35;;;;;;;;;;;;;;;-143.57;32.22;51124.06;5085264;28;19931;-78
2022/11/10 13:12:22;;;;;;;;;;;;;;;-143.57;31.47;51108.19;5084072;28;20013;-75
2022/11/10 13:15:26;;;;;;;;;;;;;;;-143.57;31.12;51116.13;5085142;28;19946;-75
2022/11/10 13:18:21;;;;;;;;;;;;;;;-143.57;30.09;51096.25;5086495;28;20553;-75
2022/11/10 13:21:06;;;;;;;;;;;;;;;-143.57;30.50;51100.22;5084829;28;19980;-75
2022/11/10 13:23:52;;;;;;;;;;;;;;;-143.57;30.68;51108.19;5069618;28;19977;-75
2022/11/10 13:26:43;;;;;;;;;;;;;;;-143.57;30.07;51136.00;5084155;28;19988;-75
2022/11/10 13:29:46;;;;;;;;;;;;;;;-143.57;30.53;51104.19;5069024;28;19931;-75
2022/11/10 13:32:33;;;;;;;;;;;;;;;-143.57;31.09;51128.06;5084125;28;19988;-75
2022/11/10 13:35:27;;;;;;;;;;;;;;;-143.57;31.14;51153.91;5084366;28;19959;-75
2022/11/10 13:38:40;;;;;;;;;;;;;;;-143.57;30.29;51092.28;5096046;28;19931;-75
2022/11/10 13:41:25;;;;;;;;;;;;;;;-143.57;30.36;51096.25;5071643;28;19935;-75
2022/11/10 13:44:20;;;;;;;;;;;;;;;-143.57;31.13;51100.22;5096859;28;19935;-75
2022/11/10 13:47:08;;;;;;;;;;;;;;;-143.57;32.56;51134.00;5067904;28;20230;-74
2022/11/10 13:50:12;;;;;;;;;;;;;;;-143.57;32.34;51072.41;5086912;28;20388;-72
2022/11/10 13:53:18;;;;;;;;;;;;;;;-143.57;32.63;51116.13;5069711;28;19950;-72
2022/11/10 13:56:17;;;;;;;;;;;;;;;-143.57;33.54;51104.19;5084505;28;19931;-71
2022/11/10 13:59:15;;;;;;;;;;;;;;;-143.57;34.18;51110.16;5085397;28;19976;-72
2022/11/10 14:02:30;;;;;;;;;;;;;;;-143.57;33.55;51120.09;5086413;28;20379;-72
2022/11/10 14:05:27;;;;;;;;;;;;;;;-143.57;33.84;51092.28;5075562;28;19931;-72
2022/11/10 14:08:14;;;;;;;;;;;;;;;-143.57;33.81;51108.19;5083987;28;20411;-71
2022/11/10 14:11:02;;;;;;;;;;;;;;;-143.57;33.24;51124.06;5071253;28;19935;-72
2022/11/10 14:13:55;;;;;;;;;;;;;;;-143.57;33.13;51090.28;5084127;28;19935;-72
2022/11/10 14:16:41;;;;;;;;;;;;;;;-143.57;33.73;51124.06;5082460;28;19930;-72